Time;durP1;ratioP1;P1;durP2;ratioP2;P2;SDS_P1;SDS_P2;PMS_P1;PMS_P2;Temp;Humidity;BMP_temperature;BMP_pressure;BME280_temperature;BME280_humidity;BME280_pressure;Samples;Min_cycle;Max_cycle;Signal;HPM_P1;HPM_P2
2023/05/07 00:01:31;;;;;;;;;9.00;9.00;;;;;;;;5031852;28;8787;-84
2023/05/07 00:03:58;;;;;;;;;10.50;9.75;;;;;;;;5023921;28;8868;-85
2023/05/07 00:06:28;;;;;;;;;10.00;10.00;;;;;;;;5030019;28;8978;-83
2023/05/07 00:08:57;;;;;;;;;9.00;9.00;;;;;;;;5005003;28;8845;-85
2023/05/07 00:11:24;;;;;;;;;10.50;10.50;;;;;;;;5029199;28;8886;-84
2023/05/07 00:13:51;;;;;;;;;10.75;10.75;;;;;;;;5030823;28;8846;-85
2023/05/07 00:16:18;;;;;;;;;15.25;14.00;;;;;;;;5023984;28;8850;-85
2023/05/07 00:18:46;;;;;;;;;14.25;12.75;;;;;;;;5026928;28;8923;-83
2023/05/07 00:21:13;;;;;;;;;23.25;19.00;;;;;;;;4999634;28;8843;-85
2023/05/07 00:23:42;;;;;;;;;17.50;14.75;;;;;;;;5016212;28;8888;-84
2023/05/07 00:26:09;;;;;;;;;16.75;16.75;;;;;;;;5017803;28;8935;-84
2023/05/07 00:28:37;;;;;;;;;16.50;16.50;;;;;;;;5026903;28;8831;-84
2023/05/07 00:31:04;;;;;;;;;16.00;14.75;;;;;;;;5028631;28;8810;-84
2023/05/07 00:33:31;;;;;;;;;12.00;12.00;;;;;;;;5025511;28;8866;-84
2023/05/07 00:36:00;;;;;;;;;15.00;13.50;;;;;;;;5019461;28;8841;-84
2023/05/07 00:38:28;;;;;;;;;11.50;11.00;;;;;;;;5029277;28;8872;-84
2023/05/07 00:40:58;;;;;;;;;14.50;13.50;;;;;;;;5029592;28;8870;-84
2023/05/07 00:43:25;;;;;;;;;16.75;15.25;;;;;;;;5018302;28;8834;-85
2023/05/07 00:45:53;;;;;;;;;17.75;10.25;;;;;;;;5027138;28;8839;-83
2023/05/07 00:48:20;;;;;;;;;11.50;11.50;;;;;;;;5028918;28;8892;-86
2023/05/07 00:50:48;;;;;;;;;8.25;8.25;;;;;;;;5028829;28;8896;-86
2023/05/07 00:53:15;;;;;;;;;2.00;2.00;;;;;;;;5019649;28;8876;-85
2023/05/07 00:55:42;;;;;;;;;2.00;2.00;;;;;;;;5031032;28;8839;-85
2023/05/07 00:58:11;;;;;;;;;2.00;2.00;;;;;;;;5032019;28;8956;-86
2023/05/07 01:00:38;;;;;;;;;4.50;4.50;;;;;;;;5028560;28;8758;-86
2023/05/07 01:03:06;;;;;;;;;3.25;2.75;;;;;;;;5019653;28;8953;-86
2023/05/07 01:05:34;;;;;;;;;3.25;3.25;;;;;;;;5029585;28;8961;-85
2023/05/07 01:08:06;;;;;;;;;6.75;3.25;;;;;;;;5029070;28;8948;-85
2023/05/07 01:10:33;;;;;;;;;4.25;4.25;;;;;;;;5029973;28;8838;-86
2023/05/07 01:13:03;;;;;;;;;4.25;4.25;;;;;;;;5021954;28;8824;-85
2023/05/07 01:15:32;;;;;;;;;5.50;5.50;;;;;;;;5025953;28;8961;-86
2023/05/07 01:18:00;;;;;;;;;8.00;8.00;;;;;;;;5028677;28;8965;-86
2023/05/07 01:20:27;;;;;;;;;6.25;6.25;;;;;;;;5031214;28;8940;-86
2023/05/07 01:22:56;;;;;;;;;8.75;6.50;;;;;;;;5022290;28;8846;-86
2023/05/07 01:25:24;;;;;;;;;8.00;6.25;;;;;;;;5025855;28;8868;-86
2023/05/07 01:27:51;;;;;;;;;11.25;10.50;;;;;;;;5024379;28;8854;-85
2023/05/07 01:30:20;;;;;;;;;9.25;9.25;;;;;;;;5036781;28;8886;-85
2023/05/07 01:32:50;;;;;;;;;9.50;9.25;;;;;;;;5032338;28;8961;-85
2023/05/07 01:35:22;;;;;;;;;12.00;10.75;;;;;;;;5031337;28;9596;-85
2023/05/07 01:37:50;;;;;;;;;11.00;9.75;;;;;;;;5026418;28;8934;-85
2023/05/07 01:40:19;;;;;;;;;10.50;10.50;;;;;;;;5009189;28;8857;-84
2023/05/07 01:42:48;;;;;;;;;9.50;9.00;;;;;;;;5028471;28;8901;-84
2023/05/07 01:45:15;;;;;;;;;9.25;8.75;;;;;;;;5031832;28;8846;-85
2023/05/07 01:47:42;;;;;;;;;8.75;8.75;;;;;;;;5035950;28;8858;-85
2023/05/07 01:50:10;;;;;;;;;7.00;7.00;;;;;;;;5026860;28;8885;-85
2023/05/07 01:52:39;;;;;;;;;6.75;6.25;;;;;;;;5031798;28;8851;-85
2023/05/07 01:55:07;;;;;;;;;7.50;6.00;;;;;;;;5030995;28;9005;-85
2023/05/07 01:57:36;;;;;;;;;6.75;6.75;;;;;;;;5019840;28;9000;-86
2023/05/07 02:00:05;;;;;;;;;8.00;6.50;;;;;;;;5013848;28;8834;-85
2023/05/07 02:02:35;;;;;;;;;2.75;2.75;;;;;;;;5031410;28;8791;-85
2023/05/07 02:05:03;;;;;;;;;4.00;4.00;;;;;;;;5014047;28;8850;-85
2023/05/07 02:07:30;;;;;;;;;3.00;3.00;;;;;;;;5030381;28;8862;-85
2023/05/07 02:10:00;;;;;;;;;5.25;3.50;;;;;;;;5031558;28;8866;-85
2023/05/07 02:12:28;;;;;;;;;4.50;4.50;;;;;;;;5030748;28;8830;-85
2023/05/07 02:14:59;;;;;;;;;3.00;3.00;;;;;;;;5020441;28;8978;-86
2023/05/07 02:17:26;;;;;;;;;3.25;3.00;;;;;;;;5020356;28;8858;-85
2023/05/07 02:19:53;;;;;;;;;2.00;2.00;;;;;;;;5030939;28;8896;-85
2023/05/07 02:22:21;;;;;;;;;3.75;3.75;;;;;;;;5029691;28;8839;-87
2023/05/07 02:24:48;;;;;;;;;2.75;2.75;;;;;;;;5025332;28;8853;-86
2023/05/07 02:27:16;;;;;;;;;3.00;3.00;;;;;;;;5025173;28;8871;-86
2023/05/07 02:29:43;;;;;;;;;3.25;3.25;;;;;;;;5027583;28;8837;-86
2023/05/07 02:32:12;;;;;;;;;4.00;4.00;;;;;;;;5047567;28;8875;-85
2023/05/07 02:34:39;;;;;;;;;3.00;3.00;;;;;;;;5051213;28;8930;-86
2023/05/07 02:37:06;;;;;;;;;3.75;3.75;;;;;;;;5043578;28;8890;-84
2023/05/07 02:39:33;;;;;;;;;3.00;3.00;;;;;;;;5048327;28;8848;-86
2023/05/07 02:42:01;;;;;;;;;3.00;3.00;;;;;;;;5051267;28;8844;-85
2023/05/07 02:44:31;;;;;;;;;4.00;4.00;;;;;;;;5051153;28;8864;-86
2023/05/07 02:46:58;;;;;;;;;3.00;3.00;;;;;;;;5048872;28;8836;-85
2023/05/07 02:49:27;;;;;;;;;4.00;4.00;;;;;;;;5044711;28;9100;-85
2023/05/07 02:51:55;;;;;;;;;4.00;4.00;;;;;;;;5050896;28;8843;-84
2023/05/07 02:54:22;;;;;;;;;2.25;2.25;;;;;;;;5046824;28;8856;-85
2023/05/07 02:56:49;;;;;;;;;3.00;3.00;;;;;;;;5065412;28;8864;-86
2023/05/07 02:59:17;;;;;;;;;4.00;4.00;;;;;;;;5050112;28;8967;-86
2023/05/07 03:01:45;;;;;;;;;3.75;3.75;;;;;;;;5031848;28;8799;-85
2023/05/07 03:04:12;;;;;;;;;4.25;3.25;;;;;;;;5021378;28;8864;-84
2023/05/07 03:06:41;;;;;;;;;4.25;4.25;;;;;;;;5011920;28;8851;-85
2023/05/07 03:09:08;;;;;;;;;5.50;3.00;;;;;;;;5041798;28;8887;-85
2023/05/07 03:11:36;;;;;;;;;5.00;3.75;;;;;;;;5021249;28;8826;-85
2023/05/07 03:14:03;;;;;;;;;3.00;3.00;;;;;;;;5027075;28;8861;-84
2023/05/07 03:16:31;;;;;;;;;3.00;3.00;;;;;;;;5029642;28;8850;-83
2023/05/07 03:18:58;;;;;;;;;3.00;3.00;;;;;;;;5027118;28;8881;-84
2023/05/07 03:21:26;;;;;;;;;4.00;4.00;;;;;;;;5030427;28;8862;-84
2023/05/07 03:23:55;;;;;;;;;3.00;3.00;;;;;;;;5027568;28;9039;-84
2023/05/07 03:26:22;;;;;;;;;4.00;3.00;;;;;;;;5029377;28;8882;-84
2023/05/07 03:28:49;;;;;;;;;3.00;3.00;;;;;;;;5025639;28;8854;-84
2023/05/07 03:31:16;;;;;;;;;3.00;3.00;;;;;;;;5040450;28;8792;-83
2023/05/07 03:33:52;;;;;;;;;2.00;2.00;;;;;;;;5048763;28;8991;-84
2023/05/07 03:36:20;;;;;;;;;2.00;2.00;;;;;;;;5050508;28;8959;-84
2023/05/07 03:38:47;;;;;;;;;1.00;1.00;;;;;;;;5049624;28;8825;-84
2023/05/07 03:41:16;;;;;;;;;3.50;3.50;;;;;;;;5051472;28;8891;-84
2023/05/07 03:43:43;;;;;;;;;3.00;3.00;;;;;;;;5046605;28;8840;-83
2023/05/07 03:46:10;;;;;;;;;3.00;1.25;;;;;;;;5050041;28;8843;-84
2023/05/07 03:48:38;;;;;;;;;3.25;2.00;;;;;;;;5049136;28;8860;-84
2023/05/07 03:51:05;;;;;;;;;1.50;1.50;;;;;;;;5049350;28;8844;-84
2023/05/07 03:53:32;;;;;;;;;2.50;2.50;;;;;;;;5049031;28;8898;-84
2023/05/07 03:56:00;;;;;;;;;2.25;2.25;;;;;;;;5049365;28;8856;-84
2023/05/07 03:58:28;;;;;;;;;2.00;2.00;;;;;;;;5047582;28;8851;-85
2023/05/07 04:00:56;;;;;;;;;0.25;0.25;;;;;;;;5038961;28;8797;-84
2023/05/07 04:03:23;;;;;;;;;3.00;2.25;;;;;;;;5013292;28;8847;-84
2023/05/07 04:05:50;;;;;;;;;1.25;1.25;;;;;;;;5027222;28;8969;-84
2023/05/07 04:08:17;;;;;;;;;3.00;3.00;;;;;;;;5021794;28;8862;-84
2023/05/07 04:10:47;;;;;;;;;3.00;3.00;;;;;;;;5028201;28;8858;-84
2023/05/07 04:13:14;;;;;;;;;2.00;2.00;;;;;;;;5011875;28;8857;-83
2023/05/07 04:15:43;;;;;;;;;1.75;1.75;;;;;;;;5026109;28;8842;-84
2023/05/07 04:18:10;;;;;;;;;2.00;2.00;;;;;;;;5024502;28;8842;-84
2023/05/07 04:20:38;;;;;;;;;2.75;1.50;;;;;;;;5025094;28;8953;-85
2023/05/07 04:23:05;;;;;;;;;2.00;2.00;;;;;;;;5028603;28;8889;-84
2023/05/07 04:25:33;;;;;;;;;1.25;1.25;;;;;;;;5034000;28;8939;-85
2023/05/07 04:28:02;;;;;;;;;2.00;2.00;;;;;;;;5021617;28;8885;-85
2023/05/07 04:30:30;;;;;;;;;1.00;1.00;;;;;;;;5027558;28;8853;-85
2023/05/07 04:32:59;;;;;;;;;2.00;2.00;;;;;;;;5020482;28;8846;-85
2023/05/07 04:35:27;;;;;;;;;0.25;0.25;;;;;;;;5023207;28;8897;-85
2023/05/07 04:37:54;;;;;;;;;2.00;2.00;;;;;;;;5025581;28;8852;-85
2023/05/07 04:40:22;;;;;;;;;2.00;2.00;;;;;;;;5024227;28;8887;-85
2023/05/07 04:42:49;;;;;;;;;2.00;2.00;;;;;;;;5028522;28;8846;-84
2023/05/07 04:45:16;;;;;;;;;1.00;1.00;;;;;;;;5028546;28;8850;-85
2023/05/07 04:47:43;;;;;;;;;0.00;0.00;;;;;;;;5033022;28;8858;-84
2023/05/07 04:50:13;;;;;;;;;1.00;1.00;;;;;;;;5027036;28;8862;-84
2023/05/07 04:52:40;;;;;;;;;1.00;1.00;;;;;;;;5032521;28;8862;-85
2023/05/07 04:55:10;;;;;;;;;1.00;1.00;;;;;;;;5032659;28;8835;-84
2023/05/07 04:57:41;;;;;;;;;1.00;1.00;;;;;;;;5030936;28;8974;-84
2023/05/07 05:00:09;;;;;;;;;1.00;1.00;;;;;;;;5032204;28;8838;-84
2023/05/07 05:02:37;;;;;;;;;1.50;1.50;;;;;;;;5026860;28;8858;-84
2023/05/07 05:05:05;;;;;;;;;1.00;1.00;;;;;;;;5028415;28;8876;-82
2023/05/07 05:07:34;;;;;;;;;1.00;1.00;;;;;;;;5024079;28;8854;-84
2023/05/07 05:10:02;;;;;;;;;1.00;1.00;;;;;;;;5027805;28;8862;-83
2023/05/07 05:12:30;;;;;;;;;1.00;1.00;;;;;;;;5031074;28;8878;-83
2023/05/07 05:15:00;;;;;;;;;2.00;1.00;;;;;;;;5034093;28;8850;-83
2023/05/07 05:17:30;;;;;;;;;2.00;2.00;;;;;;;;5024199;28;8854;-83
2023/05/07 05:19:57;;;;;;;;;3.00;1.00;;;;;;;;5031978;28;8858;-84
2023/05/07 05:22:25;;;;;;;;;2.00;2.00;;;;;;;;5034050;28;8854;-84
2023/05/07 05:24:55;;;;;;;;;2.50;2.50;;;;;;;;5033549;28;8854;-83
2023/05/07 05:27:23;;;;;;;;;2.00;2.00;;;;;;;;5033118;28;8854;-83
2023/05/07 05:29:50;;;;;;;;;1.25;1.25;;;;;;;;5029857;28;8995;-83
2023/05/07 05:32:17;;;;;;;;;1.25;1.25;;;;;;;;5023006;28;8901;-83
2023/05/07 05:34:45;;;;;;;;;2.00;2.00;;;;;;;;5031394;28;8866;-83
2023/05/07 05:37:12;;;;;;;;;1.00;1.00;;;;;;;;5017904;28;8926;-83
2023/05/07 05:40:12;;;;;;;;;2.50;2.50;;;;;;;;5033917;28;8949;-84
2023/05/07 05:42:54;;;;;;;;;3.75;3.75;;;;;;;;5020134;28;8841;-84
2023/05/07 05:45:29;;;;;;;;;3.00;3.00;;;;;;;;5021900;28;8850;-83
2023/05/07 05:48:15;;;;;;;;;4.25;4.25;;;;;;;;5022996;28;8858;-84
2023/05/07 05:53:58;;;;;;;;;5.25;5.25;;;;;;;;5011251;28;8850;-84
2023/05/07 05:56:26;;;;;;;;;3.75;3.50;;;;;;;;5028995;28;8865;-83
2023/05/07 05:58:54;;;;;;;;;7.25;4.75;;;;;;;;5027794;28;8869;-83
2023/05/07 06:01:29;;;;;;;;;4.00;4.00;;;;;;;;5023919;28;8805;-82
2023/05/07 06:03:56;;;;;;;;;5.50;5.50;;;;;;;;5030900;28;8858;-84
2023/05/07 06:06:24;;;;;;;;;5.00;5.00;;;;;;;;5039103;28;8900;-83
2023/05/07 06:08:51;;;;;;;;;7.75;7.75;;;;;;;;5039893;28;8981;-84
2023/05/07 06:11:18;;;;;;;;;5.50;5.50;;;;;;;;5039429;28;8846;-82
2023/05/07 06:13:47;;;;;;;;;10.00;7.00;;;;;;;;5027180;28;8985;-83
2023/05/07 06:16:32;;;;;;;;;4.25;4.25;;;;;;;;5028141;28;8839;-84
2023/05/07 06:19:02;;;;;;;;;6.25;6.25;;;;;;;;5029030;28;8869;-82
2023/05/07 06:21:30;;;;;;;;;6.25;6.25;;;;;;;;5023801;28;8837;-81
2023/05/07 06:23:57;;;;;;;;;4.75;4.75;;;;;;;;5032207;28;8858;-79
2023/05/07 06:26:25;;;;;;;;;4.50;4.50;;;;;;;;5028944;28;8822;-84
2023/05/07 06:28:54;;;;;;;;;5.50;5.50;;;;;;;;5029036;28;8949;-76
2023/05/07 06:31:22;;;;;;;;;2.75;2.75;;;;;;;;5029268;28;8975;-83
2023/05/07 06:33:50;;;;;;;;;5.00;4.25;;;;;;;;5028959;28;8864;-82
2023/05/07 06:36:17;;;;;;;;;6.25;5.00;;;;;;;;5028889;28;8858;-79
2023/05/07 06:38:44;;;;;;;;;5.25;5.25;;;;;;;;5029313;28;8876;-79
2023/05/07 06:41:12;;;;;;;;;5.50;5.50;;;;;;;;5028957;28;9004;-79
2023/05/07 06:43:39;;;;;;;;;5.25;5.25;;;;;;;;5029452;28;8843;-79
2023/05/07 06:46:08;;;;;;;;;8.25;7.75;;;;;;;;5028662;28;8860;-79
2023/05/07 06:48:35;;;;;;;;;6.00;6.00;;;;;;;;5029394;28;8907;-77
2023/05/07 06:51:02;;;;;;;;;5.25;5.25;;;;;;;;5035436;28;8875;-82
2023/05/07 06:53:30;;;;;;;;;5.75;4.25;;;;;;;;5017911;28;8846;-79
2023/05/07 06:55:58;;;;;;;;;4.75;4.75;;;;;;;;5019822;28;9613;-80
2023/05/07 06:58:25;;;;;;;;;3.25;3.25;;;;;;;;5029011;28;8847;-78
2023/05/07 07:00:52;;;;;;;;;3.00;3.00;;;;;;;;5034418;28;8933;-76
2023/05/07 07:03:22;;;;;;;;;3.50;3.50;;;;;;;;5047036;28;8871;-82
2023/05/07 07:05:53;;;;;;;;;2.75;2.75;;;;;;;;5051970;28;8866;-82
2023/05/07 07:08:21;;;;;;;;;2.00;2.00;;;;;;;;5051488;28;8859;-82
2023/05/07 07:10:48;;;;;;;;;2.25;2.25;;;;;;;;5052822;28;8855;-82
2023/05/07 07:13:15;;;;;;;;;4.25;3.00;;;;;;;;5051557;28;8862;-86
2023/05/07 07:15:42;;;;;;;;;3.00;2.00;;;;;;;;5043614;28;9151;-81
2023/05/07 07:18:09;;;;;;;;;2.00;2.00;;;;;;;;5045116;28;8963;-82
2023/05/07 07:20:38;;;;;;;;;1.00;1.00;;;;;;;;5049903;28;8856;-79
2023/05/07 07:23:05;;;;;;;;;1.75;1.75;;;;;;;;5047680;28;8860;-76
2023/05/07 07:25:33;;;;;;;;;2.00;2.00;;;;;;;;5045392;28;8850;-77
2023/05/07 07:28:00;;;;;;;;;1.00;1.00;;;;;;;;5040775;28;8922;-79
2023/05/07 07:30:27;;;;;;;;;2.75;2.00;;;;;;;;5035207;28;8795;-78
2023/05/07 07:33:00;;;;;;;;;1.00;1.00;;;;;;;;5027801;28;8842;-78
2023/05/07 07:35:27;;;;;;;;;1.00;1.00;;;;;;;;5027765;28;8850;-77
2023/05/07 07:37:55;;;;;;;;;1.00;1.00;;;;;;;;5026883;28;8945;-76
2023/05/07 07:40:23;;;;;;;;;0.75;0.75;;;;;;;;5018046;28;9755;-80
2023/05/07 07:42:50;;;;;;;;;4.25;1.25;;;;;;;;5028910;28;8924;-77
2023/05/07 07:45:17;;;;;;;;;1.25;1.25;;;;;;;;5026211;28;8881;-78
2023/05/07 07:47:44;;;;;;;;;2.00;2.00;;;;;;;;5027530;28;8878;-79
2023/05/07 07:50:12;;;;;;;;;2.25;2.25;;;;;;;;5029269;28;8869;-77
2023/05/07 07:52:39;;;;;;;;;2.00;2.00;;;;;;;;5028455;28;8862;-79
2023/05/07 07:55:09;;;;;;;;;2.00;2.00;;;;;;;;5028151;28;8859;-77
2023/05/07 07:57:36;;;;;;;;;1.00;1.00;;;;;;;;5024126;28;8889;-79
2023/05/07 08:00:04;;;;;;;;;1.00;1.00;;;;;;;;5017730;28;8906;-78
2023/05/07 08:02:31;;;;;;;;;1.00;1.00;;;;;;;;5023567;28;8798;-78
2023/05/07 08:04:58;;;;;;;;;1.00;1.00;;;;;;;;5022739;28;8844;-78
2023/05/07 08:07:25;;;;;;;;;0.75;0.75;;;;;;;;5024130;28;8834;-78
2023/05/07 08:09:52;;;;;;;;;1.00;1.00;;;;;;;;5028903;28;9655;-78
2023/05/07 08:12:21;;;;;;;;;1.00;1.00;;;;;;;;5021552;28;9661;-77
2023/05/07 08:14:50;;;;;;;;;0.00;0.00;;;;;;;;5022794;28;8854;-77
2023/05/07 08:17:18;;;;;;;;;1.50;1.50;;;;;;;;5027780;28;8846;-78
2023/05/07 08:19:45;;;;;;;;;1.00;1.00;;;;;;;;5036909;28;8872;-78
2023/05/07 08:22:12;;;;;;;;;2.00;2.00;;;;;;;;5023611;28;8973;-78
2023/05/07 08:24:40;;;;;;;;;2.00;2.00;;;;;;;;5014121;28;8843;-77
2023/05/07 08:27:07;;;;;;;;;1.25;1.25;;;;;;;;5031885;28;8843;-77
2023/05/07 08:29:35;;;;;;;;;2.50;2.00;;;;;;;;5031373;28;8854;-79
2023/05/07 08:32:03;;;;;;;;;2.50;2.50;;;;;;;;5035583;28;8829;-77
2023/05/07 08:34:30;;;;;;;;;2.00;2.00;;;;;;;;5032213;28;9625;-77
2023/05/07 08:36:57;;;;;;;;;2.50;2.00;;;;;;;;5028673;28;8830;-79
2023/05/07 08:39:24;;;;;;;;;3.00;3.00;;;;;;;;5024279;28;8889;-79
2023/05/07 08:41:56;;;;;;;;;2.75;2.75;;;;;;;;5032004;28;8850;-81
2023/05/07 08:44:24;;;;;;;;;3.00;3.00;;;;;;;;5024078;28;8884;-78
2023/05/07 08:46:54;;;;;;;;;1.40;1.40;;;;;;;;5032881;28;8837;-80
2023/05/07 08:49:21;;;;;;;;;2.00;2.00;;;;;;;;5026045;28;8888;-80
2023/05/07 08:51:49;;;;;;;;;3.00;2.75;;;;;;;;5029263;28;8865;-81
2023/05/07 08:54:17;;;;;;;;;2.00;2.00;;;;;;;;5034781;28;8865;-80
2023/05/07 08:56:45;;;;;;;;;4.00;4.00;;;;;;;;5035249;28;8956;-79
2023/05/07 08:59:12;;;;;;;;;3.50;3.50;;;;;;;;5035283;28;8858;-80
2023/05/07 09:01:39;;;;;;;;;3.00;3.00;;;;;;;;5033652;28;8845;-80
2023/05/07 09:04:09;;;;;;;;;3.00;3.00;;;;;;;;5031747;28;8998;-81
2023/05/07 09:06:37;;;;;;;;;3.75;3.75;;;;;;;;5031413;28;8838;-80
2023/05/07 09:09:07;;;;;;;;;3.00;3.00;;;;;;;;5026625;28;8858;-83
2023/05/07 09:11:35;;;;;;;;;5.25;5.25;;;;;;;;5030744;28;8893;-81
2023/05/07 09:14:02;;;;;;;;;6.00;6.00;;;;;;;;5031649;28;8868;-79
2023/05/07 09:16:31;;;;;;;;;3.75;3.75;;;;;;;;5031424;28;8975;-81
2023/05/07 09:18:59;;;;;;;;;3.20;3.20;;;;;;;;5032191;28;8854;-87
2023/05/07 09:21:28;;;;;;;;;3.80;3.80;;;;;;;;5026737;28;8992;-88
2023/05/07 09:23:56;;;;;;;;;3.60;3.60;;;;;;;;5031723;28;8838;-86
2023/05/07 09:26:24;;;;;;;;;3.40;2.00;;;;;;;;5023096;28;8862;-85
2023/05/07 09:28:52;;;;;;;;;3.00;3.00;;;;;;;;5024661;28;8837;-76
2023/05/07 09:31:24;;;;;;;;;3.80;3.80;;;;;;;;5026076;28;8787;-85
2023/05/07 09:33:53;;;;;;;;;2.80;2.80;;;;;;;;5031809;28;9648;-87
2023/05/07 09:36:21;;;;;;;;;3.40;3.00;;;;;;;;5033599;28;8834;-88
2023/05/07 09:38:51;;;;;;;;;2.00;2.00;;;;;;;;5027263;28;8841;-84
2023/05/07 09:41:18;;;;;;;;;2.80;2.80;;;;;;;;5025914;28;8908;-78
2023/05/07 09:43:45;;;;;;;;;2.60;2.60;;;;;;;;5033338;28;8846;-78
2023/05/07 09:46:14;;;;;;;;;2.20;2.20;;;;;;;;5033109;28;8872;-85
2023/05/07 09:48:42;;;;;;;;;2.00;2.00;;;;;;;;5031821;28;9624;-81
2023/05/07 09:51:23;;;;;;;;;2.00;2.00;;;;;;;;5028970;28;8830;-79
2023/05/07 09:53:52;;;;;;;;;2.00;2.00;;;;;;;;5020236;28;8862;-79
2023/05/07 09:56:19;;;;;;;;;3.00;2.00;;;;;;;;5027896;28;8823;-84
2023/05/07 09:58:48;;;;;;;;;2.60;2.00;;;;;;;;5029778;28;8878;-80
2023/05/07 10:01:15;;;;;;;;;1.80;1.80;;;;;;;;5027322;28;8915;-79
2023/05/07 10:03:43;;;;;;;;;1.80;1.80;;;;;;;;5029978;28;8846;-78
2023/05/07 10:06:11;;;;;;;;;1.00;1.00;;;;;;;;5029592;28;8845;-85
2023/05/07 10:08:38;;;;;;;;;1.80;1.80;;;;;;;;5030449;28;8826;-79
2023/05/07 10:11:07;;;;;;;;;3.00;3.00;;;;;;;;5029194;28;8826;-82
2023/05/07 10:13:37;;;;;;;;;2.00;2.00;;;;;;;;5030588;28;8846;-76
2023/05/07 10:16:05;;;;;;;;;2.00;2.00;;;;;;;;5021050;28;8830;-82
2023/05/07 10:18:42;;;;;;;;;2.00;2.00;;;;;;;;5026896;28;8867;-80
2023/05/07 10:21:12;;;;;;;;;2.00;2.00;;;;;;;;5028192;28;8870;-87
2023/05/07 10:23:40;;;;;;;;;1.20;1.20;;;;;;;;5030868;28;8858;-82
2023/05/07 10:26:10;;;;;;;;;2.00;2.00;;;;;;;;5029648;28;8838;-82
2023/05/07 10:28:45;;;;;;;;;5.20;2.60;;;;;;;;5030220;28;8935;-83
2023/05/07 10:31:22;;;;;;;;;3.40;1.40;;;;;;;;5030151;28;8801;-84
2023/05/07 10:33:51;;;;;;;;;2.00;2.00;;;;;;;;5028917;28;8846;-84
2023/05/07 10:36:19;;;;;;;;;1.00;1.00;;;;;;;;5024163;28;8849;-82
2023/05/07 10:38:46;;;;;;;;;3.00;1.20;;;;;;;;5017649;28;8889;-85
2023/05/07 10:41:16;;;;;;;;;4.60;3.40;;;;;;;;5031257;28;8869;-80
2023/05/07 10:43:45;;;;;;;;;2.60;2.60;;;;;;;;5029632;28;8931;-82
2023/05/07 10:46:14;;;;;;;;;1.40;1.40;;;;;;;;5030013;28;9641;-84
2023/05/07 10:49:11;;;;;;;;;2.00;2.00;;;;;;;;5031791;28;8861;-79
2023/05/07 10:51:38;;;;;;;;;1.60;1.60;;;;;;;;5025374;28;8876;-81
2023/05/07 10:54:22;;;;;;;;;2.00;2.00;;;;;;;;5028679;28;8846;-81
2023/05/07 10:56:51;;;;;;;;;0.00;0.00;;;;;;;;5022200;28;8973;-82
2023/05/07 10:59:41;;;;;;;;;1.40;1.40;;;;;;;;5028555;28;8874;-82
2023/05/07 11:02:10;;;;;;;;;1.00;1.00;;;;;;;;5020448;28;8815;-88
2023/05/07 11:04:38;;;;;;;;;2.00;2.00;;;;;;;;5027947;28;8854;-81
2023/05/07 11:07:30;;;;;;;;;0.00;0.00;;;;;;;;5027122;28;8870;-81
2023/05/07 11:10:05;;;;;;;;;2.00;2.00;;;;;;;;5009905;28;9003;-81
2023/05/07 11:13:03;;;;;;;;;1.00;1.00;;;;;;;;5025753;28;8888;-80
2023/05/07 11:15:45;;;;;;;;;2.40;2.00;;;;;;;;4967071;28;8876;-83
2023/05/07 11:18:14;;;;;;;;;2.80;2.00;;;;;;;;5016538;28;9662;-76
2023/05/07 11:20:52;;;;;;;;;3.00;3.00;;;;;;;;5023285;28;8850;-76
2023/05/07 11:23:57;;;;;;;;;2.40;2.00;;;;;;;;5022519;28;8850;-77
2023/05/07 11:26:25;;;;;;;;;3.00;2.00;;;;;;;;5009638;28;8856;-79
2023/05/07 11:28:54;;;;;;;;;3.00;3.00;;;;;;;;5022447;28;8821;-79
2023/05/07 11:31:26;;;;;;;;;3.00;3.00;;;;;;;;5019585;28;9193;-82
2023/05/07 11:33:55;;;;;;;;;1.40;1.40;;;;;;;;5028466;28;8862;-78
2023/05/07 11:36:24;;;;;;;;;3.00;1.20;;;;;;;;5012569;28;8860;-75
2023/05/07 11:38:52;;;;;;;;;2.00;2.00;;;;;;;;5025004;28;8861;-80
2023/05/07 11:41:21;;;;;;;;;1.00;1.00;;;;;;;;5027568;28;8854;-78
2023/05/07 11:43:58;;;;;;;;;2.00;2.00;;;;;;;;5024561;28;8861;-75
2023/05/07 11:46:25;;;;;;;;;1.20;1.20;;;;;;;;5023919;28;8985;-77
2023/05/07 11:48:52;;;;;;;;;1.00;1.00;;;;;;;;5028154;28;8858;-77
2023/05/07 11:51:24;;;;;;;;;2.00;2.00;;;;;;;;5027233;28;8862;-77
2023/05/07 11:53:51;;;;;;;;;1.00;1.00;;;;;;;;5027471;28;8957;-78
2023/05/07 11:56:19;;;;;;;;;2.00;2.00;;;;;;;;5026151;28;8831;-79
2023/05/07 11:58:48;;;;;;;;;1.00;1.00;;;;;;;;5028062;28;8838;-80
2023/05/07 12:01:19;;;;;;;;;3.40;3.40;;;;;;;;5025922;28;8778;-79
2023/05/07 12:03:47;;;;;;;;;1.80;1.80;;;;;;;;5019881;28;8878;-78
2023/05/07 12:06:15;;;;;;;;;2.00;2.00;;;;;;;;5024393;28;8856;-76
2023/05/07 12:08:46;;;;;;;;;0.60;0.60;;;;;;;;5019796;28;8838;-78
2023/05/07 12:11:18;;;;;;;;;1.60;1.60;;;;;;;;5020675;28;8838;-82
2023/05/07 12:13:45;;;;;;;;;0.00;0.00;;;;;;;;5027980;28;8854;-80
2023/05/07 12:16:13;;;;;;;;;2.20;1.40;;;;;;;;5021807;28;8843;-77
2023/05/07 12:18:42;;;;;;;;;0.00;0.00;;;;;;;;5027255;28;8877;-79
2023/05/07 12:21:10;;;;;;;;;0.00;0.00;;;;;;;;5019286;28;8870;-79
2023/05/07 12:23:38;;;;;;;;;0.00;0.00;;;;;;;;5029514;28;8842;-78
2023/05/07 12:26:05;;;;;;;;;1.00;1.00;;;;;;;;5028551;28;8850;-77
2023/05/07 12:28:38;;;;;;;;;0.60;0.60;;;;;;;;5025111;28;8862;-78
2023/05/07 12:31:05;;;;;;;;;0.60;0.60;;;;;;;;5033184;28;8781;-78
2023/05/07 12:33:32;;;;;;;;;0.20;0.20;;;;;;;;5048060;28;8847;-77
2023/05/07 12:36:05;;;;;;;;;6.40;5.20;;;;;;;;5047032;28;8855;-78
2023/05/07 12:38:36;;;;;;;;;2.00;2.00;;;;;;;;5047105;28;8873;-78
2023/05/07 12:41:04;;;;;;;;;3.00;3.00;;;;;;;;5046701;28;8856;-78
2023/05/07 12:43:31;;;;;;;;;0.80;0.80;;;;;;;;5046707;28;8833;-78
2023/05/07 12:46:01;;;;;;;;;0.80;0.80;;;;;;;;5046823;28;9611;-76
2023/05/07 12:48:29;;;;;;;;;1.00;1.00;;;;;;;;5046995;28;8828;-76
2023/05/07 12:50:56;;;;;;;;;2.60;2.60;;;;;;;;5047808;28;8931;-77
2023/05/07 12:53:26;;;;;;;;;3.80;3.80;;;;;;;;5046769;28;8852;-75
2023/05/07 12:55:54;;;;;;;;;4.00;4.00;;;;;;;;5047430;28;8854;-78
2023/05/07 12:58:25;;;;;;;;;3.20;3.20;;;;;;;;5035725;28;8980;-78
2023/05/07 13:00:53;;;;;;;;;3.80;2.00;;;;;;;;5046452;28;8764;-75
2023/05/07 13:03:24;;;;;;;;;2.80;2.80;;;;;;;;5046600;28;8848;-76
2023/05/07 13:05:52;;;;;;;;;3.80;2.40;;;;;;;;5046087;28;8832;-77
2023/05/07 13:08:28;;;;;;;;;3.40;3.00;;;;;;;;5055299;28;8856;-76
2023/05/07 13:10:55;;;;;;;;;3.80;3.00;;;;;;;;5050964;28;8832;-76
2023/05/07 13:13:23;;;;;;;;;3.40;2.40;;;;;;;;5050509;28;8971;-77
2023/05/07 13:15:50;;;;;;;;;2.00;2.00;;;;;;;;5042665;28;8833;-78
2023/05/07 13:18:17;;;;;;;;;2.00;2.00;;;;;;;;5050465;28;8839;-77
2023/05/07 13:20:44;;;;;;;;;2.80;2.80;;;;;;;;5046048;28;8856;-77
2023/05/07 13:23:12;;;;;;;;;9.60;7.80;;;;;;;;5050336;28;8859;-77
2023/05/07 13:25:40;;;;;;;;;10.20;10.20;;;;;;;;5049858;28;8825;-77
2023/05/07 13:28:08;;;;;;;;;2.00;2.00;;;;;;;;5041552;28;8852;-78
2023/05/07 13:30:35;;;;;;;;;2.00;2.00;;;;;;;;5045594;28;8792;-80
2023/05/07 13:33:02;;;;;;;;;3.40;2.00;;;;;;;;5049431;28;8882;-78
2023/05/07 13:35:29;;;;;;;;;2.40;0.80;;;;;;;;5049608;28;8874;-78
2023/05/07 13:37:57;;;;;;;;;2.00;0.60;;;;;;;;5050351;28;8852;-78
2023/05/07 13:40:24;;;;;;;;;1.00;1.00;;;;;;;;5060867;28;8854;-76
2023/05/07 13:42:54;;;;;;;;;0.00;0.00;;;;;;;;5050799;28;8831;-78
2023/05/07 13:45:25;;;;;;;;;0.00;0.00;;;;;;;;5047444;28;8852;-79
2023/05/07 13:47:53;;;;;;;;;1.00;1.00;;;;;;;;5050709;28;8971;-81
2023/05/07 13:50:20;;;;;;;;;0.40;0.40;;;;;;;;5057345;28;8868;-82
2023/05/07 13:52:50;;;;;;;;;0.00;0.00;;;;;;;;5049449;28;8835;-79
2023/05/07 13:55:18;;;;;;;;;0.60;0.60;;;;;;;;5050072;28;8852;-78
2023/05/07 13:57:45;;;;;;;;;0.40;0.40;;;;;;;;5039620;28;8889;-77
2023/05/07 14:00:16;;;;;;;;;1.40;0.00;;;;;;;;5049605;28;8844;-78
2023/05/07 14:02:43;;;;;;;;;0.00;0.00;;;;;;;;5050957;28;8879;-77
2023/05/07 14:05:11;;;;;;;;;0.00;0.00;;;;;;;;5048044;28;8879;-78
2023/05/07 14:07:38;;;;;;;;;0.20;0.20;;;;;;;;5046372;28;8862;-77
2023/05/07 14:10:09;;;;;;;;;0.00;0.00;;;;;;;;5046092;28;8884;-77
2023/05/07 14:12:36;;;;;;;;;1.00;1.00;;;;;;;;5054364;28;8812;-77
2023/05/07 14:15:06;;;;;;;;;0.80;0.80;;;;;;;;5050636;28;8852;-76
2023/05/07 14:17:35;;;;;;;;;1.00;1.00;;;;;;;;5049115;28;8933;-75
2023/05/07 14:20:02;;;;;;;;;1.00;1.00;;;;;;;;5049593;28;8914;-75
2023/05/07 14:22:29;;;;;;;;;0.60;0.00;;;;;;;;5048057;28;8862;-76
2023/05/07 14:24:57;;;;;;;;;1.00;1.00;;;;;;;;5047788;28;8874;-77
2023/05/07 14:27:24;;;;;;;;;2.00;2.00;;;;;;;;5048334;28;8836;-74
2023/05/07 14:29:51;;;;;;;;;1.60;1.60;;;;;;;;5048944;28;8868;-76
2023/05/07 14:32:21;;;;;;;;;1.00;1.00;;;;;;;;5039963;28;9668;-77
2023/05/07 14:34:50;;;;;;;;;1.00;1.00;;;;;;;;5049471;28;8921;-77
2023/05/07 14:37:19;;;;;;;;;2.60;2.60;;;;;;;;5041573;28;8927;-76
2023/05/07 14:39:46;;;;;;;;;2.00;2.00;;;;;;;;5048584;28;8990;-75
2023/05/07 14:42:14;;;;;;;;;3.00;3.00;;;;;;;;5048947;28;8975;-77
2023/05/07 14:44:41;;;;;;;;;4.00;4.00;;;;;;;;5040926;28;8846;-75
2023/05/07 14:47:09;;;;;;;;;2.80;2.80;;;;;;;;5048676;28;8866;-74
2023/05/07 14:49:36;;;;;;;;;3.00;3.00;;;;;;;;5048610;28;8856;-75
2023/05/07 14:52:09;;;;;;;;;2.00;2.00;;;;;;;;5048366;28;8930;-75
2023/05/07 14:54:37;;;;;;;;;2.00;2.00;;;;;;;;5048722;28;8883;-76
2023/05/07 14:57:05;;;;;;;;;2.60;2.60;;;;;;;;5048187;28;8836;-77
2023/05/07 14:59:38;;;;;;;;;1.00;1.00;;;;;;;;5043559;28;8843;-77
2023/05/07 15:02:07;;;;;;;;;1.80;1.80;;;;;;;;5039298;28;8794;-75
2023/05/07 15:04:34;;;;;;;;;1.00;1.00;;;;;;;;5047718;28;8955;-77
2023/05/07 15:07:01;;;;;;;;;1.00;1.00;;;;;;;;5057587;28;8873;-76
2023/05/07 15:09:30;;;;;;;;;2.80;2.80;;;;;;;;5048217;28;8848;-77